Time;durP1;ratioP1;P1;durP2;ratioP2;P2;SDS_P1;SDS_P2;PMS_P1;PMS_P2;Temp;Humidity;BMP_temperature;BMP_pressure;BME280_temperature;BME280_humidity;BME280_pressure;Samples;Min_cycle;Max_cycle;Signal;HPM_P1;HPM_P2
2022/09/21 00:00:33;;;;;;;;;;;;;;;5.85;100.00;98353.00;5086770;28;19924;-48
2022/09/21 00:03:00;;;;;;;;;;;;;;;5.98;100.00;98361.22;5088674;28;19931;-47
2022/09/21 00:05:27;;;;;;;;;;;;;;;5.81;100.00;98367.09;5088338;28;19924;-47
2022/09/21 00:07:55;;;;;;;;;;;;;;;5.80;100.00;98360.16;5085656;28;19928;-50
2022/09/21 00:10:22;;;;;;;;;;;;;;;5.85;100.00;98368.66;5088962;28;19920;-49
2022/09/21 00:12:49;;;;;;;;;;;;;;;5.95;100.00;98361.38;5088332;28;19931;-47
2022/09/21 00:15:18;;;;;;;;;;;;;;;5.84;100.00;98363.53;5087885;28;19947;-47
2022/09/21 00:17:46;;;;;;;;;;;;;;;5.88;100.00;98358.09;5101698;28;20030;-52
2022/09/21 00:20:13;;;;;;;;;;;;;;;5.88;100.00;98362.50;5094744;28;19932;-48
2022/09/21 00:22:41;;;;;;;;;;;;;;;5.84;100.00;98366.97;5083831;28;20283;-47
2022/09/21 00:25:08;;;;;;;;;;;;;;;5.82;100.00;98368.81;5067357;28;19946;-50
2022/09/21 00:27:36;;;;;;;;;;;;;;;5.83;100.00;98360.06;5090472;28;19931;-47
2022/09/21 00:30:05;;;;;;;;;;;;;;;5.81;100.00;98367.09;5087799;28;20295;-47
2022/09/21 00:32:34;;;;;;;;;;;;;;;5.84;100.00;98366.13;5086232;28;19924;-48
2022/09/21 00:35:02;;;;;;;;;;;;;;;5.84;100.00;98363.53;5088548;28;19985;-49
2022/09/21 00:37:30;;;;;;;;;;;;;;;5.70;100.00;98364.03;5073781;28;19934;-49
2022/09/21 00:39:57;;;;;;;;;;;;;;;5.72;100.00;98367.47;5100093;28;20714;-51
2022/09/21 00:42:26;;;;;;;;;;;;;;;5.78;100.00;98361.16;5083990;28;19928;-50
2022/09/21 00:44:53;;;;;;;;;;;;;;;5.78;100.00;98371.59;5085764;28;20302;-49
2022/09/21 00:47:23;;;;;;;;;;;;;;;5.62;100.00;98371.34;5088140;28;19924;-47
2022/09/21 00:49:53;;;;;;;;;;;;;;;5.66;100.00;98372.91;5086139;28;20035;-48
2022/09/21 00:52:21;;;;;;;;;;;;;;;5.72;100.00;98380.50;5087062;28;20419;-50
2022/09/21 00:54:51;;;;;;;;;;;;;;;5.63;100.00;98372.19;5087049;28;19924;-49
2022/09/21 00:57:20;;;;;;;;;;;;;;;5.52;100.00;98372.63;5086240;28;19924;-48
2022/09/21 00:59:49;;;;;;;;;;;;;;;5.72;100.00;98377.91;5094974;28;20394;-50
2022/09/21 01:02:16;;;;;;;;;;;;;;;5.50;100.00;98373.56;5100839;28;19972;-47
2022/09/21 01:04:43;;;;;;;;;;;;;;;5.60;100.00;98374.91;5092299;28;19928;-48
2022/09/21 01:07:17;;;;;;;;;;;;;;;5.56;100.00;98375.94;5096749;28;20053;-48
2022/09/21 01:09:44;;;;;;;;;;;;;;;5.62;100.00;98381.78;5091028;28;19928;-51
2022/09/21 01:12:20;;;;;;;;;;;;;;;5.63;100.00;98380.88;5071278;28;20282;-50
2022/09/21 01:14:56;;;;;;;;;;;;;;;5.52;100.00;98380.44;5090284;28;20291;-50
2022/09/21 01:17:29;;;;;;;;;;;;;;;5.57;100.00;98373.28;5089593;28;19936;-51
2022/09/21 01:20:13;;;;;;;;;;;;;;;5.70;100.00;98374.50;5097252;28;19924;-47
2022/09/21 01:22:48;;;;;;;;;;;;;;;5.60;100.00;98378.38;5089761;28;19924;-51
2022/09/21 01:25:23;;;;;;;;;;;;;;;5.53;100.00;98381.28;5089407;28;19931;-46
2022/09/21 01:27:57;;;;;;;;;;;;;;;5.51;100.00;98385.72;5098107;28;19934;-46
2022/09/21 01:30:26;;;;;;;;;;;;;;;5.60;100.00;98388.84;5098014;28;19924;-47
2022/09/21 01:32:56;;;;;;;;;;;;;;;5.59;100.00;98387.09;5089634;28;19924;-47
2022/09/21 01:35:27;;;;;;;;;;;;;;;5.52;100.00;98390.88;5079898;28;19928;-47
2022/09/21 01:37:57;;;;;;;;;;;;;;;5.52;100.00;98385.66;5097599;28;19924;-48
2022/09/21 01:40:25;;;;;;;;;;;;;;;5.58;100.00;98393.25;5093601;28;20406;-48
2022/09/21 01:42:54;;;;;;;;;;;;;;;5.52;100.00;98385.66;5079168;28;20287;-48
2022/09/21 01:45:24;;;;;;;;;;;;;;;5.52;100.00;98385.66;5093230;28;19997;-49
2022/09/21 01:47:54;;;;;;;;;;;;;;;5.56;100.00;98389.00;5103712;28;19936;-49
2022/09/21 01:50:24;;;;;;;;;;;;;;;5.59;100.00;98396.72;5100277;28;19928;-48
2022/09/21 01:52:53;;;;;;;;;;;;;;;5.50;100.00;98397.06;5090748;28;19924;-47
2022/09/21 01:55:27;;;;;;;;;;;;;;;5.46;100.00;98388.50;5086759;28;19928;-47
2022/09/21 01:57:58;;;;;;;;;;;;;;;5.50;100.00;98391.84;5102241;28;19924;-47
2022/09/21 02:00:26;;;;;;;;;;;;;;;5.43;100.00;98399.06;5089108;28;19928;-48
2022/09/21 02:02:57;;;;;;;;;;;;;;;5.41;100.00;98400.88;5095103;28;19924;-48
2022/09/21 02:05:26;;;;;;;;;;;;;;;5.42;100.00;98394.75;5094076;28;19924;-47
2022/09/21 02:07:53;;;;;;;;;;;;;;;5.38;100.00;98398.38;5088737;28;20015;-49
2022/09/21 02:10:22;;;;;;;;;;;;;;;5.47;100.00;98408.47;5089848;28;19936;-48
2022/09/21 02:12:51;;;;;;;;;;;;;;;5.41;100.00;98407.84;5089133;28;19924;-48
2022/09/21 02:15:20;;;;;;;;;;;;;;;5.43;100.00;98413.84;5097196;28;19924;-49
2022/09/21 02:17:52;;;;;;;;;;;;;;;5.42;100.00;98418.22;5079222;28;20294;-49
2022/09/21 02:20:23;;;;;;;;;;;;;;;5.47;100.00;98412.84;5090923;28;20094;-47
2022/09/21 02:22:58;;;;;;;;;;;;;;;5.55;100.00;98409.00;5090598;28;19981;-49
2022/09/21 02:25:30;;;;;;;;;;;;;;;5.54;100.00;98409.94;5094810;28;19924;-47
2022/09/21 02:28:01;;;;;;;;;;;;;;;5.46;100.00;98406.78;5098648;28;19930;-49
2022/09/21 02:30:30;;;;;;;;;;;;;;;5.43;100.00;98411.22;5088234;28;20013;-48
2022/09/21 02:33:00;;;;;;;;;;;;;;;5.43;100.00;98421.66;5099032;28;19924;-47
2022/09/21 02:35:32;;;;;;;;;;;;;;;5.38;100.00;98407.97;5082057;28;19961;-50
2022/09/21 02:38:06;;;;;;;;;;;;;;;5.51;100.00;98417.88;5095075;28;19928;-48
2022/09/21 02:40:37;;;;;;;;;;;;;;;5.50;100.00;98420.53;5081527;28;20448;-47
2022/09/21 02:43:09;;;;;;;;;;;;;;;5.54;100.00;98415.16;5094454;28;19924;-50
2022/09/21 02:45:41;;;;;;;;;;;;;;;5.57;100.00;98415.03;5105830;28;20287;-50
2022/09/21 02:48:11;;;;;;;;;;;;;;;5.59;100.00;98414.97;5102700;28;19951;-49
2022/09/21 02:50:42;;;;;;;;;;;;;;;5.55;100.00;98421.22;5094555;28;19931;-47
2022/09/21 02:53:11;;;;;;;;;;;;;;;5.59;100.00;98423.66;5098234;28;20390;-48
2022/09/21 02:55:39;;;;;;;;;;;;;;;5.62;100.00;98430.53;5089613;28;19931;-49
2022/09/21 02:58:10;;;;;;;;;;;;;;;5.66;100.00;98432.94;5089118;28;19928;-49
2022/09/21 03:00:37;;;;;;;;;;;;;;;5.66;100.00;98419.91;5092547;28;19924;-48
2022/09/21 03:03:15;;;;;;;;;;;;;;;5.69;100.00;98424.16;5089337;28;19928;-49
2022/09/21 03:05:44;;;;;;;;;;;;;;;5.72;100.00;98431.84;5100393;28;20510;-46
2022/09/21 03:08:11;;;;;;;;;;;;;;;5.70;100.00;98421.47;5092196;28;19924;-49
2022/09/21 03:10:39;;;;;;;;;;;;;;;5.72;100.00;98432.72;5097665;28;19993;-51
2022/09/21 03:13:08;;;;;;;;;;;;;;;5.74;100.00;98432.66;5089791;28;19931;-47
2022/09/21 03:15:35;;;;;;;;;;;;;;;5.75;100.00;98434.34;5083014;28;19925;-50
2022/09/21 03:18:03;;;;;;;;;;;;;;;5.72;100.00;98432.72;5088339;28;19924;-48
2022/09/21 03:20:31;;;;;;;;;;;;;;;5.73;100.00;98437.03;5094018;28;19931;-48
2022/09/21 03:23:00;;;;;;;;;;;;;;;5.74;100.00;98443.09;5091092;28;20355;-50
2022/09/21 03:25:27;;;;;;;;;;;;;;;5.69;100.00;98445.88;5093599;28;19924;-48
2022/09/21 03:27:54;;;;;;;;;;;;;;;5.71;100.00;98448.44;5086377;28;20383;-47
2022/09/21 03:30:21;;;;;;;;;;;;;;;5.68;100.00;98443.31;5091201;28;19923;-47
2022/09/21 03:32:49;;;;;;;;;;;;;;;5.62;100.00;98444.41;5094396;28;19930;-48
2022/09/21 03:35:16;;;;;;;;;;;;;;;5.63;100.00;98450.50;5087536;28;19932;-47
2022/09/21 03:37:44;;;;;;;;;;;;;;;5.57;100.00;98450.72;5097773;28;19927;-47
2022/09/21 03:40:14;;;;;;;;;;;;;;;5.60;100.00;98458.44;5097225;28;19947;-47
2022/09/21 03:42:41;;;;;;;;;;;;;;;5.51;100.00;98459.63;5094947;28;19931;-49
2022/09/21 03:45:09;;;;;;;;;;;;;;;5.49;100.00;98466.69;5099587;28;19967;-47
2022/09/21 03:47:37;;;;;;;;;;;;;;;5.45;100.00;98465.09;5101119;28;19947;-46
2022/09/21 03:50:04;;;;;;;;;;;;;;;5.48;100.00;98461.50;5092786;28;19940;-46
2022/09/21 03:52:31;;;;;;;;;;;;;;;5.42;100.00;98475.63;5100499;28;19932;-48
2022/09/21 03:54:58;;;;;;;;;;;;;;;5.45;100.00;98467.69;5081525;28;19953;-46
2022/09/21 03:57:27;;;;;;;;;;;;;;;5.46;100.00;98473.75;5087742;28;19924;-47
2022/09/21 03:59:54;;;;;;;;;;;;;;;5.46;100.00;98473.75;5088523;28;19924;-52
2022/09/21 04:02:21;;;;;;;;;;;;;;;5.45;100.00;98475.53;5089802;28;20579;-46
2022/09/21 04:04:49;;;;;;;;;;;;;;;5.45;100.00;98474.66;5102566;28;19928;-46
2022/09/21 04:07:16;;;;;;;;;;;;;;;5.47;100.00;98476.31;5091303;28;19939;-47
2022/09/21 04:09:43;;;;;;;;;;;;;;;5.50;100.00;98481.41;5092706;28;19928;-46
2022/09/21 04:12:10;;;;;;;;;;;;;;;5.49;100.00;98468.44;5097408;28;19949;-46
2022/09/21 04:14:38;;;;;;;;;;;;;;;5.50;100.00;98478.81;5091339;28;19934;-48
2022/09/21 04:17:05;;;;;;;;;;;;;;;5.52;100.00;98479.63;5086193;28;19986;-46
2022/09/21 04:19:33;;;;;;;;;;;;;;;5.54;100.00;98480.41;5093568;28;20302;-47
2022/09/21 04:22:00;;;;;;;;;;;;;;;5.57;100.00;98482.03;5100620;28;19924;-50
2022/09/21 04:24:27;;;;;;;;;;;;;;;5.58;100.00;98476.75;5099833;28;20302;-50
2022/09/21 04:26:54;;;;;;;;;;;;;;;5.62;100.00;98475.72;5073141;28;19928;-47
2022/09/21 04:29:21;;;;;;;;;;;;;;;5.60;100.00;98476.72;5089927;28;19928;-46
2022/09/21 04:31:50;;;;;;;;;;;;;;;5.60;100.00;98476.72;5097807;28;20382;-47
2022/09/21 04:34:17;;;;;;;;;;;;;;;5.63;100.00;98481.81;5087821;28;20120;-47
2022/09/21 04:36:44;;;;;;;;;;;;;;;5.60;100.00;98480.19;5097123;28;20305;-46
2022/09/21 04:39:11;;;;;;;;;;;;;;;5.63;100.00;98484.44;5100574;28;20016;-50
2022/09/21 04:41:39;;;;;;;;;;;;;;;5.64;100.00;98478.28;5086177;28;19935;-47
2022/09/21 04:44:06;;;;;;;;;;;;;;;5.64;100.00;98479.16;5090175;28;20469;-47
2022/09/21 04:46:33;;;;;;;;;;;;;;;5.65;100.00;98491.28;5100069;28;19931;-46
2022/09/21 04:49:02;;;;;;;;;;;;;;;5.60;100.00;98485.41;5094156;28;19974;-50
2022/09/21 04:51:30;;;;;;;;;;;;;;;5.62;100.00;98493.19;5095256;28;19924;-46
2022/09/21 04:53:58;;;;;;;;;;;;;;;5.63;100.00;98489.66;5100320;28;20000;-46
2022/09/21 04:56:27;;;;;;;;;;;;;;;5.64;100.00;98494.81;5093139;28;19951;-48
2022/09/21 04:58:56;;;;;;;;;;;;;;;5.65;100.00;98501.72;5095053;28;19928;-46
2022/09/21 05:01:24;;;;;;;;;;;;;;;5.62;100.00;98488.78;5097549;28;19928;-46
2022/09/21 05:03:51;;;;;;;;;;;;;;;5.61;100.00;98497.53;5092738;28;19935;-46
2022/09/21 05:06:20;;;;;;;;;;;;;;;5.66;100.00;98494.75;5089305;28;20306;-46
2022/09/21 05:11:32;;;;;;;;;;;;;;;5.62;100.00;98499.22;5099384;28;20015;-48
2022/09/21 05:13:59;;;;;;;;;;;;;;;5.68;100.00;98505.97;5084948;28;19932;-45
2022/09/21 05:16:26;;;;;;;;;;;;;;;5.65;100.00;98501.72;5099737;28;19939;-47
2022/09/21 05:18:54;;;;;;;;;;;;;;;5.72;100.00;98505.81;5097007;28;19939;-47
2022/09/21 05:21:23;;;;;;;;;;;;;;;5.77;100.00;98501.25;5074263;28;19931;-50
2022/09/21 05:23:50;;;;;;;;;;;;;;;5.68;100.00;98513.81;5099290;28;20386;-47
2022/09/21 05:26:18;;;;;;;;;;;;;;;5.70;100.00;98515.44;5087693;28;20428;-50
2022/09/21 05:28:45;;;;;;;;;;;;;;;5.71;100.00;98501.50;5093617;28;20321;-51
2022/09/21 05:31:22;;;;;;;;;;;;;;;5.72;100.00;98511.03;5093275;28;19924;-50
2022/09/21 05:33:52;;;;;;;;;;;;;;;5.75;100.00;98503.09;5098724;28;19932;-51
2022/09/21 05:36:31;;;;;;;;;;;;;;;5.84;100.00;98507.97;5102515;28;20595;-46
2022/09/21 05:38:58;;;;;;;;;;;;;;;5.81;100.00;98508.06;5101796;28;19932;-47
2022/09/21 05:41:25;;;;;;;;;;;;;;;5.81;100.00;98502.84;5091639;28;19923;-50
2022/09/21 05:43:53;;;;;;;;;;;;;;;5.86;100.00;98506.16;5087956;28;20387;-47
2022/09/21 05:46:29;;;;;;;;;;;;;;;5.94;100.00;98513.72;5091948;28;19924;-46
2022/09/21 05:49:00;;;;;;;;;;;;;;;5.92;100.00;98512.94;5091926;28;19924;-51
2022/09/21 05:51:34;;;;;;;;;;;;;;;5.99;100.00;98511.81;5094727;28;19964;-46
2022/09/21 05:54:04;;;;;;;;;;;;;;;5.99;100.00;98507.41;5091684;28;20002;-46
2022/09/21 05:56:35;;;;;;;;;;;;;;;5.97;100.00;98517.06;5092558;28;19935;-46
2022/09/21 05:59:08;;;;;;;;;;;;;;;5.98;100.00;98515.28;5090970;28;20383;-50
2022/09/21 06:01:40;;;;;;;;;;;;;;;6.09;100.00;98527.03;5096209;28;19928;-46
2022/09/21 06:04:10;;;;;;;;;;;;;;;6.10;100.00;98523.50;5089635;28;19924;-46
2022/09/21 06:06:39;;;;;;;;;;;;;;;6.16;100.00;98535.50;5090474;28;20375;-45
2022/09/21 06:09:06;;;;;;;;;;;;;;;6.12;100.00;98533.91;5093426;28;19947;-48
2022/09/21 06:11:33;;;;;;;;;;;;;;;6.11;100.00;98533.06;5087840;28;19924;-46
2022/09/21 06:14:00;;;;;;;;;;;;;;;6.23;100.00;98539.56;5092491;28;19924;-47
2022/09/21 06:16:27;;;;;;;;;;;;;;;6.29;100.00;98528.91;5089434;28;19924;-47
2022/09/21 06:18:55;;;;;;;;;;;;;;;6.41;100.00;98528.41;5101192;28;19928;-51
2022/09/21 06:21:22;;;;;;;;;;;;;;;6.24;100.00;98522.97;5088984;28;20384;-47
2022/09/21 06:23:51;;;;;;;;;;;;;;;6.53;100.00;98520.94;5105001;28;20062;-49
2022/09/21 06:26:18;;;;;;;;;;;;;;;6.64;100.00;98528.31;5096915;28;19935;-49
2022/09/21 06:28:45;;;;;;;;;;;;;;;6.37;100.00;98514.63;5100995;28;21552;-47
2022/09/21 06:31:12;;;;;;;;;;;;;;;6.45;100.00;98520.38;5099651;28;20023;-46
2022/09/21 06:33:39;;;;;;;;;;;;;;;6.26;100.00;98527.25;5101437;28;20444;-50
2022/09/21 06:36:07;;;;;;;;;;;;;;;6.22;100.00;98520.44;5101002;28;19931;-48
2022/09/21 06:38:34;;;;;;;;;;;;;;;6.23;100.00;98531.72;5102745;28;19958;-50
2022/09/21 06:41:03;;;;;;;;;;;;;;;6.15;100.00;98539.03;5104859;28;19931;-47
2022/09/21 06:43:30;;;;;;;;;;;;;;;6.13;100.00;98538.22;5098857;28;20394;-53
2022/09/21 06:45:58;;;;;;;;;;;;;;;6.10;100.00;98548.81;5103581;28;19924;-46
2022/09/21 06:48:25;;;;;;;;;;;;;;;6.13;100.00;98544.31;5103515;28;19934;-46
2022/09/21 06:50:56;;;;;;;;;;;;;;;6.14;100.00;98548.59;5096940;28;19977;-47
2022/09/21 06:53:23;;;;;;;;;;;;;;;6.23;100.00;98550.88;5098795;28;19924;-47
2022/09/21 06:55:51;;;;;;;;;;;;;;;6.22;100.00;98551.81;5104100;28;19935;-46
2022/09/21 06:58:19;;;;;;;;;;;;;;;6.20;100.00;98558.84;5102429;28;20401;-46
2022/09/21 07:00:46;;;;;;;;;;;;;;;6.31;100.00;98548.81;5099254;28;19924;-49
2022/09/21 07:03:13;;;;;;;;;;;;;;;6.25;100.00;98563.88;5105161;28;20436;-51
2022/09/21 07:05:41;;;;;;;;;;;;;;;6.33;100.00;98570.53;5105920;28;19923;-51
2022/09/21 07:08:08;;;;;;;;;;;;;;;6.33;100.00;98573.16;5097720;28;19936;-49
2022/09/21 07:10:35;;;;;;;;;;;;;;;6.44;100.00;98575.31;5103215;28;20553;-47
2022/09/21 07:13:03;;;;;;;;;;;;;;;6.28;100.00;98577.69;5106595;28;19981;-47
2022/09/21 07:15:32;;;;;;;;;;;;;;;6.44;100.00;98577.94;5087584;28;19924;-48
2022/09/21 07:17:59;;;;;;;;;;;;;;;6.27;100.00;98575.97;5106478;28;19930;-48
2022/09/21 07:20:26;;;;;;;;;;;;;;;6.35;100.00;98570.44;5106254;28;19931;-46
2022/09/21 07:22:53;;;;;;;;;;;;;;;6.25;100.00;98572.56;5103509;28;20357;-51
2022/09/21 07:25:21;;;;;;;;;;;;;;;6.37;100.00;98576.47;5089839;28;19928;-47
2022/09/21 07:27:48;;;;;;;;;;;;;;;6.48;100.00;98574.28;5101702;28;19924;-48
2022/09/21 07:30:15;;;;;;;;;;;;;;;6.49;100.00;98573.38;5096693;28;20275;-47
2022/09/21 07:32:44;;;;;;;;;;;;;;;6.57;100.00;98574.78;5096357;28;19928;-51
2022/09/21 07:35:11;;;;;;;;;;;;;;;6.58;100.00;98576.47;5083946;28;19958;-46
2022/09/21 07:37:38;;;;;;;;;;;;;;;7.29;100.00;98577.00;5100190;28;19930;-46
2022/09/21 07:40:06;;;;;;;;;;;;;;;7.65;100.00;98585.88;5093250;28;20031;-49
2022/09/21 07:42:33;;;;;;;;;;;;;;;7.06;100.00;98587.56;5099493;28;19924;-50
2022/09/21 07:45:01;;;;;;;;;;;;;;;9.20;100.00;98588.16;5096111;28;19924;-48
2022/09/21 07:47:28;;;;;;;;;;;;;;;7.22;100.00;98591.28;5095625;28;19924;-49
2022/09/21 07:49:57;;;;;;;;;;;;;;;7.06;100.00;98595.41;5095331;28;20048;-49
2022/09/21 07:52:24;;;;;;;;;;;;;;;7.02;100.00;98591.22;5099080;28;19943;-48
2022/09/21 07:54:51;;;;;;;;;;;;;;;6.91;100.00;98596.03;5099909;28;20386;-46
2022/09/21 08:00:03;;;;;;;;;;;;;;;6.98;100.00;98594.88;5077545;28;19932;-48
2022/09/21 08:02:38;;;;;;;;;;;;;;;7.15;100.00;98600.28;5095490;28;19924;-52
2022/09/21 08:05:08;;;;;;;;;;;;;;;6.91;100.00;98601.28;5097852;28;20677;-46
2022/09/21 08:07:35;;;;;;;;;;;;;;;6.81;100.00;98605.19;5099196;28;20315;-46
2022/09/21 08:10:03;;;;;;;;;;;;;;;7.01;100.00;98597.38;5096630;28;19924;-52
2022/09/21 08:12:30;;;;;;;;;;;;;;;6.92;100.00;98602.13;5076675;28;19928;-45
2022/09/21 08:14:57;;;;;;;;;;;;;;;6.89;100.00;98603.13;5045847;28;20379;-46
2022/09/21 08:17:29;;;;;;;;;;;;;;;7.01;100.00;98610.47;5055756;28;19964;-46
2022/09/21 08:19:58;;;;;;;;;;;;;;;6.92;100.00;98609.97;5054093;28;20002;-47
2022/09/21 08:22:27;;;;;;;;;;;;;;;7.16;100.00;98604.59;5052631;28;19929;-47
2022/09/21 08:24:54;;;;;;;;;;;;;;;7.50;100.00;98602.25;5054625;28;19925;-45
2022/09/21 08:27:23;;;;;;;;;;;;;;;7.34;100.00;98610.81;5048709;28;20016;-46
2022/09/21 08:29:51;;;;;;;;;;;;;;;7.02;100.00;98613.94;5056145;28;20655;-46
2022/09/21 08:32:18;;;;;;;;;;;;;;;7.36;100.00;98615.06;5056922;28;20024;-49
2022/09/21 08:34:45;;;;;;;;;;;;;;;7.19;100.00;98614.09;5057911;28;20379;-46
2022/09/21 08:37:12;;;;;;;;;;;;;;;7.16;100.00;98616.81;5054115;28;20382;-46
2022/09/21 08:39:41;;;;;;;;;;;;;;;7.28;100.00;98618.94;5052494;28;19929;-46
2022/09/21 08:42:16;;;;;;;;;;;;;;;7.34;100.00;98630.00;5048621;28;19933;-50
2022/09/21 08:44:48;;;;;;;;;;;;;;;7.14;100.00;98614.28;5060683;28;19978;-47
2022/09/21 08:47:17;;;;;;;;;;;;;;;7.24;100.00;98615.59;5060683;28;19924;-48
2022/09/21 08:49:46;;;;;;;;;;;;;;;7.29;100.00;98626.75;5055819;28;20003;-45
2022/09/21 08:52:16;;;;;;;;;;;;;;;7.37;100.00;98622.03;5048845;28;20617;-46
2022/09/21 08:54:47;;;;;;;;;;;;;;;7.52;100.00;98617.91;5059937;28;19931;-46
2022/09/21 08:57:15;;;;;;;;;;;;;;;7.37;100.00;98615.94;5055607;28;20015;-51
2022/09/21 08:59:44;;;;;;;;;;;;;;;7.35;100.00;98618.63;5052488;28;19940;-45
2022/09/21 09:02:30;;;;;;;;;;;;;;;7.26;100.00;98623.38;5049484;28;20383;-45
2022/09/21 09:05:02;;;;;;;;;;;;;;;7.25;100.00;98632.16;5054878;28;19955;-46
2022/09/21 09:07:38;;;;;;;;;;;;;;;7.26;100.00;98624.25;5051271;28;19924;-45
2022/09/21 09:10:17;;;;;;;;;;;;;;;7.32;100.00;98629.19;5043481;28;19929;-45
2022/09/21 09:12:52;;;;;;;;;;;;;;;7.31;100.00;98630.13;5047762;28;20534;-46
2022/09/21 09:15:28;;;;;;;;;;;;;;;7.46;100.00;98620.78;5051209;28;19929;-49
2022/09/21 09:17:59;;;;;;;;;;;;;;;7.46;100.00;98626.03;5056478;28;19925;-46
2022/09/21 09:20:30;;;;;;;;;;;;;;;7.72;100.00;98618.75;5038383;28;19935;-45
2022/09/21 09:23:03;;;;;;;;;;;;;;;7.89;100.00;98628.50;5063275;28;20377;-46
2022/09/21 09:25:35;;;;;;;;;;;;;;;7.67;100.00;98630.34;5056923;28;20362;-48
2022/09/21 09:28:14;;;;;;;;;;;;;;;7.72;100.00;98625.78;5052527;28;19956;-46
2022/09/21 09:30:41;;;;;;;;;;;;;;;8.07;100.00;98630.31;5055185;28;19928;-46
2022/09/21 09:33:13;;;;;;;;;;;;;;;8.31;100.00;98621.38;5062120;28;19929;-45
2022/09/21 09:35:44;;;;;;;;;;;;;;;8.06;100.00;98631.25;5055770;28;19932;-50
2022/09/21 09:38:19;;;;;;;;;;;;;;;8.01;100.00;98622.72;5060679;28;19932;-47
2022/09/21 09:40:56;;;;;;;;;;;;;;;7.94;100.00;98627.38;5045454;28;20307;-46
2022/09/21 09:43:31;;;;;;;;;;;;;;;8.05;100.00;98629.56;5048997;28;20491;-48
2022/09/21 09:46:04;;;;;;;;;;;;;;;8.33;100.00;98626.53;5066103;28;20039;-47
2022/09/21 09:48:37;;;;;;;;;;;;;;;8.34;100.00;98621.19;5060089;28;19931;-48
2022/09/21 09:51:04;;;;;;;;;;;;;;;8.61;100.00;98629.56;5061943;28;19981;-48
2022/09/21 09:53:32;;;;;;;;;;;;;;;8.73;100.00;98621.97;5060786;28;19925;-45
2022/09/21 09:56:01;;;;;;;;;;;;;;;9.25;100.00;98615.06;5060263;28;19963;-45
2022/09/21 09:58:34;;;;;;;;;;;;;;;9.31;100.00;98618.25;5056221;28;20019;-47
2022/09/21 10:01:02;;;;;;;;;;;;;;;9.11;100.00;98614.88;5059169;28;20024;-49
2022/09/21 10:03:29;;;;;;;;;;;;;;;8.73;100.00;98615.88;5066335;28;19978;-48
2022/09/21 10:05:56;;;;;;;;;;;;;;;8.67;100.00;98613.56;5062408;28;20011;-45
2022/09/21 10:08:31;;;;;;;;;;;;;;;8.90;100.00;98602.81;5055960;28;19929;-46
2022/09/21 10:10:58;;;;;;;;;;;;;;;9.31;100.00;98604.28;5054795;28;19925;-46
2022/09/21 10:13:29;;;;;;;;;;;;;;;9.70;100.00;98602.25;5064997;28;19924;-46
2022/09/21 10:15:58;;;;;;;;;;;;;;;9.73;100.00;98607.38;5090844;28;19978;-44
2022/09/21 10:18:30;;;;;;;;;;;;;;;9.47;100.00;98606.06;5100572;28;20383;-47
2022/09/21 10:20:59;;;;;;;;;;;;;;;9.76;100.00;98607.19;5101004;28;20391;-45
2022/09/21 10:23:26;;;;;;;;;;;;;;;9.89;100.00;98603.84;5080419;28;20023;-45
2022/09/21 10:25:55;;;;;;;;;;;;;;;9.81;100.00;98599.94;5098446;28;19938;-47
2022/09/21 10:28:23;;;;;;;;;;;;;;;9.71;100.00;98594.31;5095675;28;20865;-46
2022/09/21 10:31:07;;;;;;;;;;;;;;;9.61;100.00;98597.47;5099067;28;19923;-45
2022/09/21 10:33:47;;;;;;;;;;;;;;;9.73;100.00;98595.06;5101572;28;19976;-45
2022/09/21 10:36:25;;;;;;;;;;;;;;;9.60;100.00;98599.25;5099408;28;19970;-48
2022/09/21 10:38:53;;;;;;;;;;;;;;;9.32;100.00;98593.69;5095528;28;19923;-45
2022/09/21 10:41:21;;;;;;;;;;;;;;;9.16;100.00;98594.50;5091413;28;20536;-46
2022/09/21 10:43:50;;;;;;;;;;;;;;;9.21;100.00;98603.00;5062001;28;19931;-46
2022/09/21 10:46:32;;;;;;;;;;;;;;;9.13;100.00;98606.00;5095406;28;19963;-46
2022/09/21 10:48:59;;;;;;;;;;;;;;;9.15;100.00;98598.91;5088315;28;19931;-45
2022/09/21 10:51:28;;;;;;;;;;;;;;;9.28;100.00;98599.13;5091628;28;20026;-45
2022/09/21 10:53:56;;;;;;;;;;;;;;;9.89;100.00;98603.00;5085479;28;19924;-45
2022/09/21 10:56:23;;;;;;;;;;;;;;;9.61;100.00;98590.44;5101506;28;20389;-45
2022/09/21 10:59:09;;;;;;;;;;;;;;;9.83;100.00;98592.78;5075535;28;20012;-45
2022/09/21 11:01:42;;;;;;;;;;;;;;;10.08;100.00;98588.81;5086343;28;19963;-45
2022/09/21 11:04:12;;;;;;;;;;;;;;;10.17;100.00;98584.81;5097741;28;19932;-46
2022/09/21 11:06:41;;;;;;;;;;;;;;;10.11;100.00;98578.13;5098577;28;19942;-45
2022/09/21 11:09:09;;;;;;;;;;;;;;;10.16;100.00;98580.50;5099554;28;19971;-47
2022/09/21 11:11:41;;;;;;;;;;;;;;;10.30;100.00;98573.56;5081777;28;19931;-45
2022/09/21 11:14:14;;;;;;;;;;;;;;;10.18;100.00;98590.00;5081861;28;19924;-46
2022/09/21 11:16:47;;;;;;;;;;;;;;;10.33;100.00;98575.19;5091658;28;20290;-45
2022/09/21 11:19:19;;;;;;;;;;;;;;;10.77;100.00;98568.34;5093410;28;19924;-48
2022/09/21 11:21:50;;;;;;;;;;;;;;;10.68;100.00;98571.47;5084373;28;19924;-46
2022/09/21 11:24:21;;;;;;;;;;;;;;;10.28;100.00;98577.19;5092469;28;19938;-50
2022/09/21 11:26:53;;;;;;;;;;;;;;;10.17;100.00;98585.69;5084226;28;19925;-51
2022/09/21 11:29:23;;;;;;;;;;;;;;;9.66;100.00;98595.47;5099001;28;19935;-46
2022/09/21 11:32:15;;;;;;;;;;;;;;;9.12;100.00;98590.34;5077204;28;20375;-45
2022/09/21 11:34:59;;;;;;;;;;;;;;;9.21;100.00;98590.72;5085376;28;19924;-44
2022/09/21 11:37:34;;;;;;;;;;;;;;;9.37;100.00;98575.09;5089522;28;19956;-47
2022/09/21 11:40:08;;;;;;;;;;;;;;;9.50;100.00;98578.78;5089131;28;19950;-44
2022/09/21 11:42:42;;;;;;;;;;;;;;;9.81;100.00;98577.09;5096707;28;20287;-46
2022/09/21 11:45:15;;;;;;;;;;;;;;;9.95;100.00;98577.22;5076527;28;19958;-44
2022/09/21 11:47:54;;;;;;;;;;;;;;;10.07;100.00;98581.00;5090172;28;20046;-46
2022/09/21 11:50:31;;;;;;;;;;;;;;;9.82;100.00;98575.34;5082515;28;19923;-51
2022/09/21 11:53:10;;;;;;;;;;;;;;;10.06;100.00;98576.69;5091367;28;19923;-46
2022/09/21 11:55:52;;;;;;;;;;;;;;;10.49;100.00;98568.13;5085224;28;20410;-47
2022/09/21 11:58:24;;;;;;;;;;;;;;;10.71;100.00;98566.03;5089132;28;20003;-46
2022/09/21 12:00:56;;;;;;;;;;;;;;;10.56;100.00;98558.97;5089575;28;19924;-48
2022/09/21 12:03:37;;;;;;;;;;;;;;;10.92;100.00;98557.75;5090196;28;19924;-47
2022/09/21 12:06:19;;;;;;;;;;;;;;;10.85;100.00;98561.72;5094167;28;20438;-45
2022/09/21 12:08:56;;;;;;;;;;;;;;;10.91;100.00;98557.88;5073579;28;19932;-46
2022/09/21 12:11:29;;;;;;;;;;;;;;;10.72;100.00;98549.31;5077309;28;19924;-45
2022/09/21 12:14:01;;;;;;;;;;;;;;;11.65;100.00;98549.06;5097022;28;20402;-46
2022/09/21 12:16:34;;;;;;;;;;;;;;;11.37;100.00;98551.63;5100812;28;19924;-46
2022/09/21 12:19:08;;;;;;;;;;;;;;;11.33;100.00;98545.69;5079358;28;20019;-47
2022/09/21 12:21:37;;;;;;;;;;;;;;;11.20;100.00;98546.47;5096759;28;19924;-44
2022/09/21 12:24:05;;;;;;;;;;;;;;;10.90;100.00;98553.53;5098077;28;20374;-46
2022/09/21 12:26:35;;;;;;;;;;;;;;;10.85;100.00;98545.91;5095142;28;20306;-45
2022/09/21 12:29:04;;;;;;;;;;;;;;;10.60;100.00;98571.03;5093086;28;20286;-46
2022/09/21 12:31:35;;;;;;;;;;;;;;;9.01;100.00;98584.75;5096538;28;19951;-50
2022/09/21 12:34:05;;;;;;;;;;;;;;;7.94;100.00;98593.34;5084816;28;19931;-45
2022/09/21 12:36:37;;;;;;;;;;;;;;;7.74;100.00;98587.25;5096482;28;19924;-45
2022/09/21 12:39:07;;;;;;;;;;;;;;;8.04;100.00;98573.66;5088724;28;19932;-45
2022/09/21 12:41:39;;;;;;;;;;;;;;;8.10;100.00;98572.53;5088073;28;20032;-44
2022/09/21 12:44:13;;;;;;;;;;;;;;;8.28;100.00;98574.31;5094675;28;19957;-44
2022/09/21 12:46:44;;;;;;;;;;;;;;;8.25;100.00;98573.59;5092754;28;19928;-45
2022/09/21 12:49:13;;;;;;;;;;;;;;;8.22;100.00;98579.00;5091107;28;19924;-49
2022/09/21 12:51:44;;;;;;;;;;;;;;;8.26;100.00;98573.53;5103084;28;19928;-44
2022/09/21 12:54:17;;;;;;;;;;;;;;;8.38;100.00;98577.34;5087201;28;19928;-44
2022/09/21 12:56:48;;;;;;;;;;;;;;;8.71;100.00;98573.13;5098594;28;20301;-46
2022/09/21 12:59:25;;;;;;;;;;;;;;;9.64;100.00;98578.91;5100743;28;19928;-45
2022/09/21 13:01:55;;;;;;;;;;;;;;;10.34;100.00;98568.97;5103677;28;20537;-45
2022/09/21 13:04:33;;;;;;;;;;;;;;;10.20;100.00;98555.72;5099476;28;19924;-45